createdAt,value
2023-01-09T00:02:54.968Z,97.80
2023-01-09T00:06:37.424Z,97.70
2023-01-09T00:10:19.343Z,97.70
2023-01-09T00:14:01.096Z,97.60
2023-01-09T00:17:42.871Z,97.90
2023-01-09T00:21:24.700Z,97.80
2023-01-09T00:25:07.138Z,97.70
2023-01-09T00:28:51.117Z,97.60
2023-01-09T00:32:32.841Z,97.50
2023-01-09T00:36:14.590Z,97.40
2023-01-09T00:39:56.331Z,97.50
2023-01-09T00:43:44.556Z,97.60
2023-01-09T00:47:33.267Z,97.60
2023-01-09T00:51:16.634Z,97.60
2023-01-09T00:54:59.310Z,97.60
2023-01-09T00:58:41.302Z,97.60
2023-01-09T01:02:23.144Z,97.50
2023-01-09T01:06:23.534Z,97.50
2023-01-09T01:10:16.208Z,97.50
2023-01-09T01:13:57.980Z,97.50
2023-01-09T01:17:41.087Z,97.60
2023-01-09T01:21:22.862Z,97.80
2023-01-09T01:25:05.373Z,98.00
2023-01-09T01:28:47.074Z,98.20
2023-01-09T01:32:28.772Z,98.40
2023-01-09T01:36:10.739Z,98.50
2023-01-09T01:39:52.473Z,98.50
2023-01-09T01:43:55.078Z,98.60
2023-01-09T01:48:03.815Z,98.90
2023-01-09T01:51:49.538Z,98.90
2023-01-09T01:55:33.435Z,98.90
2023-01-09T01:59:24.315Z,98.90
2023-01-09T02:03:07.543Z,99.10
2023-01-09T02:06:51.829Z,98.70
2023-01-09T02:10:34.409Z,98.70
2023-01-09T02:14:16.820Z,98.80
2023-01-09T02:18:08.309Z,98.80
2023-01-09T02:21:56.059Z,98.80
2023-01-09T02:26:12.888Z,98.90
2023-01-09T02:30:24.691Z,98.90
2023-01-09T02:34:17.921Z,98.90
2023-01-09T02:38:21.266Z,98.90
2023-01-09T02:42:22.567Z,98.90
2023-01-09T02:46:04.415Z,98.70
2023-01-09T02:49:52.918Z,99.00
2023-01-09T02:54:04.460Z,98.50
2023-01-09T02:57:57.134Z,98.20
2023-01-09T03:01:57.121Z,98.40
2023-01-09T03:05:45.179Z,98.30
2023-01-09T03:09:31.715Z,98.40
2023-01-09T03:13:18.351Z,98.50
2023-01-09T03:17:05.872Z,98.40
2023-01-09T03:20:48.951Z,98.40
2023-01-09T03:24:30.702Z,98.40
2023-01-09T03:28:29.453Z,98.30
2023-01-09T03:32:11.442Z,98.20
2023-01-09T03:35:53.172Z,98.30
2023-01-09T03:39:35.055Z,98.30
2023-01-09T03:43:16.782Z,98.30
2023-01-09T03:46:58.494Z,98.30
2023-01-09T03:50:42.611Z,98.20
2023-01-09T03:54:24.382Z,98.20
2023-01-09T03:58:06.132Z,98.20
2023-01-09T04:01:47.935Z,98.10
2023-01-09T04:05:29.835Z,98.20
2023-01-09T04:09:11.589Z,98.20
2023-01-09T04:12:53.349Z,98.30
2023-01-09T04:16:35.163Z,98.20
2023-01-09T04:20:17.184Z,98.20
2023-01-09T04:23:58.962Z,98.10
2023-01-09T04:27:40.721Z,98.10
2023-01-09T04:31:22.516Z,98.20
2023-01-09T04:35:04.638Z,98.30
2023-01-09T04:38:46.329Z,98.20
2023-01-09T04:42:28.067Z,97.90
2023-01-09T04:46:09.847Z,97.70
2023-01-09T04:49:52.110Z,97.60
2023-01-09T04:53:33.885Z,97.80
2023-01-09T04:57:15.597Z,98.10
2023-01-09T05:00:57.381Z,97.60
2023-01-09T05:04:39.155Z,97.50
2023-01-09T05:08:20.905Z,97.40
2023-01-09T05:12:02.719Z,97.30
2023-01-09T05:15:44.467Z,97.10
2023-01-09T05:19:26.229Z,97.60
2023-01-09T05:23:07.969Z,97.90
2023-01-09T05:26:49.714Z,98.10
2023-01-09T05:30:31.712Z,98.20
2023-01-09T05:34:13.460Z,98.40
2023-01-09T05:37:55.885Z,98.30
2023-01-09T05:41:37.886Z,98.00
2023-01-09T05:45:19.591Z,97.70
2023-01-09T05:49:01.332Z,97.60
2023-01-09T05:52:43.072Z,97.80
2023-01-09T05:56:24.819Z,97.90
2023-01-09T06:00:07.271Z,98.20
2023-01-09T06:03:48.985Z,98.30
2023-01-09T06:07:30.709Z,98.40
2023-01-09T06:11:12.425Z,98.40
2023-01-09T06:14:54.115Z,98.00
2023-01-09T06:18:35.943Z,98.10
2023-01-09T06:22:17.639Z,98.20
2023-01-09T06:25:59.358Z,98.30
2023-01-09T06:29:41.098Z,98.20
2023-01-09T06:33:22.901Z,98.30
2023-01-09T06:37:04.651Z,98.40
2023-01-09T06:40:46.389Z,98.40
2023-01-09T06:44:28.198Z,98.50
2023-01-09T06:48:10.673Z,98.40
2023-01-09T06:51:52.487Z,98.20
2023-01-09T06:55:34.390Z,98.10
2023-01-09T06:59:16.171Z,98.20
2023-01-09T07:02:57.897Z,98.20
2023-01-09T07:06:39.819Z,98.10
2023-01-09T07:10:21.557Z,98.00
2023-01-09T07:14:03.313Z,98.00
2023-01-09T07:17:45.088Z,98.00
2023-01-09T07:21:27.693Z,98.00
2023-01-09T07:25:09.435Z,98.00
2023-01-09T07:28:51.219Z,98.10
2023-01-09T07:32:33.909Z,98.20
2023-01-09T07:36:15.649Z,98.20
2023-01-09T07:39:57.431Z,98.20
2023-01-09T07:43:39.623Z,98.20
2023-01-09T07:47:21.442Z,98.10
2023-01-09T07:51:03.247Z,98.00
2023-01-09T07:54:44.950Z,98.00
2023-01-09T07:58:26.651Z,98.00
2023-01-09T08:02:09.687Z,97.90
2023-01-09T08:05:51.782Z,97.90
2023-01-09T08:09:33.589Z,97.80
2023-01-09T08:13:15.312Z,97.80
2023-01-09T08:16:57.052Z,97.70
2023-01-09T08:20:38.837Z,97.80
2023-01-09T08:24:20.660Z,98.10
2023-01-09T08:28:02.380Z,97.90
2023-01-09T08:31:44.164Z,97.90
2023-01-09T08:35:25.970Z,97.90
2023-01-09T08:39:08.861Z,97.90
2023-01-09T08:43:09.081Z,97.90
2023-01-09T08:47:05.982Z,97.90
2023-01-09T08:50:47.816Z,98.00
2023-01-09T08:54:31.287Z,98.00
2023-01-09T08:58:13.384Z,98.00
2023-01-09T09:01:55.271Z,97.90
2023-01-09T09:05:37.091Z,97.80
2023-01-09T09:09:19.391Z,97.80
2023-01-09T09:13:01.847Z,97.60
2023-01-09T09:16:43.610Z,97.60
2023-01-09T09:20:28.616Z,97.60
2023-01-09T09:24:10.461Z,97.60
2023-01-09T09:27:52.830Z,97.80
2023-01-09T09:31:37.520Z,97.80
2023-01-09T09:35:21.022Z,97.70
2023-01-09T09:39:02.810Z,97.60
2023-01-09T09:43:22.065Z,96.90
2023-01-09T09:47:30.925Z,97.40
2023-01-09T09:51:37.761Z,97.40
2023-01-09T09:55:29.452Z,97.40
2023-01-09T09:59:27.184Z,97.30
2023-01-09T10:03:34.656Z,96.80
2023-01-09T10:07:27.269Z,97.20
2023-01-09T10:11:17.205Z,97.10
2023-01-09T10:15:21.286Z,97.50
2023-01-09T10:19:02.976Z,96.50
2023-01-09T10:23:03.377Z,97.70
2023-01-09T10:30:45.947Z,97.20
2023-01-09T10:34:36.703Z,97.10
2023-01-09T10:38:29.160Z,97.20
2023-01-09T10:42:23.068Z,97.10
2023-01-09T10:46:30.933Z,97.00
2023-01-09T10:50:23.324Z,96.30
2023-01-09T10:54:12.640Z,96.90
2023-01-09T10:57:59.253Z,97.50
2023-01-09T11:01:43.276Z,97.20
2023-01-09T11:05:28.435Z,97.30
2023-01-09T11:09:10.734Z,97.20
2023-01-09T11:13:20.435Z,97.20
2023-01-09T11:17:04.351Z,95.10
2023-01-09T11:20:46.231Z,97.20
2023-01-09T11:24:30.881Z,97.20
2023-01-09T11:28:12.603Z,97.20
2023-01-09T11:31:58.839Z,97.00
2023-01-09T11:35:52.928Z,96.40
2023-01-09T11:39:38.090Z,95.40
2023-01-09T11:43:35.446Z,96.70
2023-01-09T11:47:39.092Z,94.70
2023-01-09T11:51:24.030Z,93.60
2023-01-09T11:55:12.198Z,95.30
2023-01-09T11:58:53.962Z,95.00
2023-01-09T12:02:57.356Z,95.80
2023-01-09T12:07:06.675Z,93.10
2023-01-09T12:11:15.714Z,93.80
2023-01-09T12:15:24.898Z,94.00
2023-01-09T12:19:53.016Z,93.60
2023-01-09T12:23:44.048Z,93.00
2023-01-09T12:28:04.672Z,94.00
2023-01-09T12:31:58.156Z,94.20
2023-01-09T12:35:50.111Z,94.10
2023-01-09T12:39:46.958Z,94.40
2023-01-09T12:43:33.123Z,93.60
2023-01-09T12:47:50.070Z,95.40
2023-01-09T12:51:43.530Z,94.00
2023-01-09T12:55:31.006Z,94.40
2023-01-09T12:59:37.140Z,95.30
2023-01-09T13:03:22.843Z,93.70
2023-01-09T13:07:18.101Z,95.20
2023-01-09T13:11:28.068Z,94.10
2023-01-09T13:15:34.875Z,93.70
2023-01-09T13:19:34.003Z,93.20
2023-01-09T13:23:56.641Z,94.20
2023-01-09T13:27:40.973Z,94.50
2023-01-09T13:31:44.551Z,94.90
2023-01-09T13:35:26.522Z,92.90
2023-01-09T13:39:08.346Z,95.10
2023-01-09T13:43:09.967Z,95.20
2023-01-09T13:46:58.985Z,92.90
2023-01-09T13:50:45.892Z,94.50
2023-01-09T13:54:55.628Z,94.50
2023-01-09T13:58:37.525Z,93.60
2023-01-09T14:02:49.904Z,95.40
2023-01-09T14:06:31.622Z,93.80
2023-01-09T14:10:25.674Z,95.50
2023-01-09T14:14:25.957Z,94.20
2023-01-09T14:18:26.012Z,94.00
2023-01-09T14:22:23.222Z,94.90
2023-01-09T14:26:06.000Z,96.10
2023-01-09T14:29:47.849Z,95.90
2023-01-09T14:33:36.205Z,95.50
2023-01-09T14:37:18.783Z,94.90
2023-01-09T14:41:19.084Z,95.20
2023-01-09T14:45:27.351Z,95.70
2023-01-09T14:49:33.449Z,93.00
2023-01-09T14:53:30.595Z,93.20
2023-01-09T14:57:26.162Z,94.00
2023-01-09T15:01:14.861Z,93.10
2023-01-09T15:05:02.765Z,94.60
2023-01-09T15:09:00.211Z,94.80
2023-01-09T15:12:46.440Z,93.60
2023-01-09T15:16:29.333Z,94.80
2023-01-09T15:20:20.534Z,95.30
2023-01-09T15:24:12.582Z,94.20
2023-01-09T15:27:57.882Z,94.00
2023-01-09T15:31:43.241Z,95.00
2023-01-09T15:35:26.131Z,94.40
2023-01-09T15:39:07.907Z,94.80
2023-01-09T15:42:57.425Z,94.90
2023-01-09T15:46:40.400Z,94.90
2023-01-09T15:50:28.479Z,94.70
2023-01-09T15:54:27.136Z,93.90
2023-01-09T15:58:30.367Z,93.20
2023-01-09T16:02:33.108Z,92.90
2023-01-09T16:06:28.517Z,94.10
2023-01-09T16:10:24.961Z,92.80
2023-01-09T16:14:47.609Z,92.80
2023-01-09T16:18:35.398Z,92.20
2023-01-09T16:22:23.804Z,93.60
2023-01-09T16:26:14.787Z,93.30
2023-01-09T16:30:06.283Z,93.60
2023-01-09T16:33:52.179Z,93.00
2023-01-09T16:37:34.488Z,93.70
2023-01-09T16:41:38.981Z,93.70
2023-01-09T16:45:26.171Z,93.80
2023-01-09T16:49:23.563Z,93.40
2023-01-09T16:53:16.785Z,92.80
2023-01-09T16:57:00.731Z,93.10
2023-01-09T17:00:42.626Z,93.90
2023-01-09T17:04:24.364Z,93.80
2023-01-09T17:08:23.816Z,93.90
2023-01-09T17:12:05.738Z,93.40
2023-01-09T17:15:47.834Z,94.00
2023-01-09T17:19:29.590Z,94.00
2023-01-09T17:23:11.831Z,94.00
2023-01-09T17:27:11.886Z,93.90
2023-01-09T17:30:53.573Z,94.00
2023-01-09T17:34:35.477Z,94.00
2023-01-09T17:38:17.519Z,94.00
2023-01-09T17:42:01.840Z,94.10
2023-01-09T17:45:43.731Z,94.00
2023-01-09T17:49:27.186Z,94.10
2023-01-09T17:53:08.854Z,94.40
2023-01-09T17:56:51.703Z,93.30
2023-01-09T18:00:36.898Z,94.30
2023-01-09T18:04:18.636Z,94.00
2023-01-09T18:08:00.529Z,94.20
2023-01-09T18:11:43.850Z,94.20
2023-01-09T18:15:26.083Z,94.20
2023-01-09T18:19:07.909Z,94.10
2023-01-09T18:22:49.623Z,94.10
2023-01-09T18:26:31.445Z,94.10
2023-01-09T18:30:13.265Z,94.10
2023-01-09T18:33:57.114Z,94.00
2023-01-09T18:37:38.867Z,94.10
2023-01-09T18:41:21.972Z,94.50
2023-01-09T18:45:04.009Z,94.80
2023-01-09T18:48:45.838Z,95.00
2023-01-09T18:52:28.268Z,95.10
2023-01-09T18:56:10.074Z,94.90
2023-01-09T18:59:51.764Z,94.70
2023-01-09T19:03:33.560Z,94.60
2023-01-09T19:07:15.874Z,94.40
2023-01-09T19:10:58.131Z,94.30
2023-01-09T19:14:39.956Z,94.20
2023-01-09T19:18:23.887Z,94.10
2023-01-09T19:22:05.673Z,94.10
2023-01-09T19:25:48.187Z,94.10
2023-01-09T19:29:30.055Z,94.00
2023-01-09T19:33:12.528Z,94.00
2023-01-09T19:36:54.414Z,93.90
2023-01-09T19:40:36.604Z,93.90
2023-01-09T19:44:19.032Z,94.00
2023-01-09T19:48:07.377Z,94.30
2023-01-09T19:51:50.263Z,94.30
2023-01-09T19:55:32.821Z,94.10
2023-01-09T19:59:17.845Z,94.00
2023-01-09T20:03:02.604Z,93.90
2023-01-09T20:06:47.191Z,94.00
2023-01-09T20:10:28.945Z,94.00
2023-01-09T20:14:19.007Z,94.10
2023-01-09T20:18:02.215Z,94.20
2023-01-09T20:21:44.225Z,94.60
2023-01-09T20:25:25.947Z,94.60
2023-01-09T20:29:10.688Z,94.40
2023-01-09T20:32:53.914Z,94.20
2023-01-09T20:36:36.153Z,94.00
2023-01-09T20:40:18.423Z,93.90
2023-01-09T20:44:07.166Z,93.80
2023-01-09T20:47:49.123Z,93.70
2023-01-09T20:51:31.172Z,93.80
2023-01-09T20:55:13.555Z,93.90
2023-01-09T20:58:55.946Z,93.90
2023-01-09T21:02:37.847Z,93.90
2023-01-09T21:06:21.830Z,94.00
2023-01-09T21:10:03.918Z,94.00
2023-01-09T21:13:45.636Z,94.30
2023-01-09T21:17:28.241Z,94.00
2023-01-09T21:21:13.486Z,94.10
2023-01-09T21:24:55.362Z,94.10
2023-01-09T21:28:45.883Z,94.10
2023-01-09T21:32:28.810Z,94.30
2023-01-09T21:36:10.652Z,94.40
2023-01-09T21:39:52.382Z,94.80
2023-01-09T21:43:52.997Z,94.80
2023-01-09T21:47:34.702Z,94.40
2023-01-09T21:51:19.574Z,94.40
2023-01-09T21:55:01.389Z,94.30
2023-01-09T21:58:46.127Z,94.20
2023-01-09T22:02:27.861Z,94.00
2023-01-09T22:06:09.832Z,94.40
2023-01-09T22:09:51.664Z,94.10
2023-01-09T22:13:33.371Z,94.30
2023-01-09T22:17:15.087Z,94.70
2023-01-09T22:20:56.964Z,94.90
2023-01-09T22:24:38.965Z,94.30
2023-01-09T22:28:21.492Z,94.20
2023-01-09T22:32:03.716Z,94.10
2023-01-09T22:35:45.564Z,94.00
2023-01-09T22:39:27.246Z,93.90
2023-01-09T22:43:16.064Z,93.90
2023-01-09T22:46:58.370Z,93.80
2023-01-09T22:50:40.083Z,93.90
2023-01-09T22:54:21.805Z,93.80
2023-01-09T22:58:04.287Z,93.80
2023-01-09T23:01:49.515Z,93.80
2023-01-09T23:05:31.915Z,93.80
2023-01-09T23:09:13.615Z,93.90
2023-01-09T23:12:55.325Z,94.00
2023-01-09T23:16:37.702Z,94.10
2023-01-09T23:20:19.680Z,94.30
2023-01-09T23:24:01.968Z,94.40
2023-01-09T23:27:45.767Z,94.40
2023-01-09T23:31:27.817Z,94.50
2023-01-09T23:35:10.037Z,94.50
2023-01-09T23:38:51.979Z,94.50
2023-01-09T23:42:52.723Z,94.50
2023-01-09T23:46:34.583Z,94.50
2023-01-09T23:50:16.660Z,94.50
2023-01-09T23:53:58.515Z,94.50
2023-01-09T23:57:40.541Z,94.50
